createdAt,value
2022-12-11T00:00:10.754Z,99.90
2022-12-11T00:02:37.473Z,99.90
2022-12-11T00:05:06.390Z,99.90
2022-12-11T00:07:33.166Z,99.90
2022-12-11T00:09:59.970Z,99.90
2022-12-11T00:12:26.832Z,99.90
2022-12-11T00:14:53.587Z,99.90
2022-12-11T00:17:20.322Z,99.90
2022-12-11T00:19:47.044Z,99.90
2022-12-11T00:22:15.264Z,99.90
2022-12-11T00:24:42.000Z,99.90
2022-12-11T00:27:08.749Z,99.90
2022-12-11T00:29:35.490Z,99.90
2022-12-11T00:32:02.297Z,99.90
2022-12-11T00:34:29.067Z,99.90
2022-12-11T00:36:55.854Z,99.90
2022-12-11T00:39:23.927Z,99.90
2022-12-11T00:41:50.653Z,99.90
2022-12-11T00:44:17.369Z,99.90
2022-12-11T00:46:44.194Z,99.90
2022-12-11T00:49:10.981Z,99.90
2022-12-11T00:51:37.843Z,99.90
2022-12-11T00:54:04.774Z,99.90
2022-12-11T00:56:32.991Z,99.90
2022-12-11T00:58:59.789Z,99.90
2022-12-11T01:01:26.550Z,99.90
2022-12-11T01:03:53.982Z,99.90
2022-12-11T01:06:22.750Z,99.90
2022-12-11T01:08:50.334Z,99.90
2022-12-11T01:11:18.086Z,99.90
2022-12-11T01:13:46.205Z,99.90
2022-12-11T01:16:15.482Z,99.90
2022-12-11T01:18:42.434Z,99.90
2022-12-11T01:21:10.853Z,99.90
2022-12-11T01:23:37.956Z,99.90
2022-12-11T01:26:06.468Z,99.90
2022-12-11T01:28:33.181Z,99.90
2022-12-11T01:31:01.478Z,99.90
2022-12-11T01:33:28.365Z,99.90
2022-12-11T01:35:55.135Z,99.90
2022-12-11T01:38:21.891Z,99.90
2022-12-11T01:40:50.525Z,99.90
2022-12-11T01:43:17.706Z,99.90
2022-12-11T01:45:45.953Z,99.90
2022-12-11T01:48:17.493Z,99.90
2022-12-11T01:50:47.442Z,99.90
2022-12-11T01:53:19.983Z,99.90
2022-12-11T01:55:48.510Z,99.90
2022-12-11T01:58:16.842Z,99.90
2022-12-11T02:00:43.561Z,99.90
2022-12-11T02:03:10.529Z,99.90
2022-12-11T02:05:38.765Z,99.90
2022-12-11T02:08:07.597Z,99.90
2022-12-11T02:11:04.170Z,99.90
2022-12-11T02:13:37.002Z,99.90
2022-12-11T02:16:11.937Z,99.90
2022-12-11T02:18:44.355Z,99.90
2022-12-11T02:21:19.617Z,99.90
2022-12-11T02:24:11.133Z,99.90
2022-12-11T02:27:13.812Z,99.90
2022-12-11T02:29:49.343Z,99.90
2022-12-11T02:32:21.033Z,99.90
2022-12-11T02:34:55.206Z,99.90
2022-12-11T02:37:24.474Z,99.90
2022-12-11T02:39:54.104Z,99.90
2022-12-11T02:42:22.744Z,99.90
2022-12-11T02:44:53.720Z,99.90
2022-12-11T02:47:21.765Z,99.90
2022-12-11T02:49:50.047Z,99.90
2022-12-11T02:52:21.108Z,99.90
2022-12-11T02:54:49.330Z,99.90
2022-12-11T02:57:21.813Z,99.90
2022-12-11T02:59:49.865Z,99.90
2022-12-11T03:02:17.619Z,99.90
2022-12-11T03:04:45.389Z,99.90
2022-12-11T03:07:15.909Z,99.90
2022-12-11T03:09:45.417Z,99.90
2022-12-11T03:12:15.213Z,99.90
2022-12-11T03:14:43.102Z,99.90
2022-12-11T03:17:17.029Z,99.90
2022-12-11T03:19:47.345Z,99.90
2022-12-11T03:22:20.526Z,99.90
2022-12-11T03:24:52.332Z,99.90
2022-12-11T03:27:24.179Z,99.90
2022-12-11T03:29:56.919Z,99.90
2022-12-11T03:32:29.350Z,99.90
2022-12-11T03:35:00.603Z,99.90
2022-12-11T03:37:31.276Z,99.90
2022-12-11T03:40:02.239Z,99.90
2022-12-11T03:42:29.609Z,99.90
2022-12-11T03:44:58.732Z,99.90
2022-12-11T03:47:28.602Z,99.90
2022-12-11T03:49:56.919Z,99.90
2022-12-11T03:52:25.264Z,99.90
2022-12-11T03:54:53.212Z,99.90
2022-12-11T03:57:25.210Z,99.90
2022-12-11T03:59:52.212Z,99.90
2022-12-11T04:02:18.951Z,99.90
2022-12-11T04:04:47.033Z,99.90
2022-12-11T04:07:13.894Z,99.90
2022-12-11T04:09:40.619Z,99.90
2022-12-11T04:12:07.365Z,99.90
2022-12-11T04:14:34.134Z,99.90
2022-12-11T04:17:01.562Z,99.90
2022-12-11T04:19:28.429Z,99.90
2022-12-11T04:21:56.546Z,99.90
2022-12-11T04:24:23.257Z,99.90
2022-12-11T04:26:49.983Z,99.90
2022-12-11T04:29:16.828Z,99.90
2022-12-11T04:31:43.549Z,99.90
2022-12-11T04:34:10.274Z,99.90
2022-12-11T04:36:37.420Z,99.90
2022-12-11T04:39:06.041Z,99.90
2022-12-11T04:41:32.978Z,99.90
2022-12-11T04:43:59.732Z,99.90
2022-12-11T04:46:26.575Z,99.90
2022-12-11T04:48:57.307Z,99.90
2022-12-11T04:51:25.053Z,99.90
2022-12-11T04:53:51.857Z,99.90
2022-12-11T04:56:20.326Z,99.90
2022-12-11T04:58:47.627Z,99.90
2022-12-11T05:01:16.444Z,99.90
2022-12-11T05:03:43.630Z,99.90
2022-12-11T05:06:11.461Z,99.90
2022-12-11T05:08:40.588Z,99.90
2022-12-11T05:11:09.493Z,99.90
2022-12-11T05:13:37.902Z,99.90
2022-12-11T05:16:05.561Z,99.90
2022-12-11T05:18:32.361Z,99.90
2022-12-11T05:21:00.965Z,99.90
2022-12-11T05:23:28.510Z,99.90
2022-12-11T05:25:56.008Z,99.90
2022-12-11T05:28:24.201Z,99.90
2022-12-11T05:30:56.578Z,99.90
2022-12-11T05:33:23.876Z,99.90
2022-12-11T05:35:50.822Z,99.90
2022-12-11T05:38:17.598Z,99.90
2022-12-11T05:40:44.818Z,99.90
2022-12-11T05:43:11.564Z,99.90
2022-12-11T05:45:38.307Z,99.90
2022-12-11T05:48:06.762Z,99.90
2022-12-11T05:50:33.571Z,99.90
2022-12-11T05:53:00.301Z,99.90
2022-12-11T05:55:27.029Z,99.90
2022-12-11T05:57:53.753Z,99.90
2022-12-11T06:00:20.663Z,99.90
2022-12-11T06:02:47.554Z,99.90
2022-12-11T06:05:15.946Z,99.90
2022-12-11T06:07:42.698Z,99.90
2022-12-11T06:10:10.057Z,99.90
2022-12-11T06:12:36.863Z,99.90
2022-12-11T06:15:04.074Z,99.90
2022-12-11T06:17:30.848Z,99.90
2022-12-11T06:19:57.550Z,99.90
2022-12-11T06:22:25.686Z,99.90
2022-12-11T06:24:52.447Z,99.90
2022-12-11T06:27:19.161Z,99.90
2022-12-11T06:29:46.678Z,99.90
2022-12-11T06:32:13.400Z,99.90
2022-12-11T06:34:40.119Z,99.90
2022-12-11T06:37:06.863Z,99.90
2022-12-11T06:39:34.965Z,99.90
2022-12-11T06:42:04.017Z,99.90
2022-12-11T06:44:30.845Z,99.90
2022-12-11T06:46:57.607Z,99.90
2022-12-11T06:49:24.327Z,99.90
2022-12-11T06:51:51.087Z,99.90
2022-12-11T06:54:17.804Z,99.90
2022-12-11T06:56:45.885Z,99.90
2022-12-11T06:59:13.001Z,99.90
2022-12-11T07:01:39.843Z,99.90
2022-12-11T07:04:06.593Z,99.90
2022-12-11T07:06:33.330Z,99.90
2022-12-11T07:09:00.082Z,99.90
2022-12-11T07:11:26.814Z,99.90
2022-12-11T07:13:54.893Z,99.90
2022-12-11T07:16:21.721Z,99.90
2022-12-11T07:18:50.466Z,99.90
2022-12-11T07:21:17.802Z,99.90
2022-12-11T07:23:44.661Z,99.90
2022-12-11T07:26:13.602Z,99.90
2022-12-11T07:28:40.791Z,99.90
2022-12-11T07:31:10.890Z,99.90
2022-12-11T07:33:37.748Z,99.90
2022-12-11T07:36:07.161Z,99.90
2022-12-11T07:38:34.529Z,99.90
2022-12-11T07:41:01.733Z,99.90
2022-12-11T07:43:28.665Z,99.90
2022-12-11T07:45:55.405Z,99.90
2022-12-11T07:48:23.561Z,99.90
2022-12-11T07:50:50.317Z,99.90
2022-12-11T07:53:17.041Z,99.90
2022-12-11T07:55:43.840Z,99.90
2022-12-11T07:58:10.566Z,99.90
2022-12-11T08:00:37.295Z,99.90
2022-12-11T08:03:04.295Z,99.90
2022-12-11T08:05:32.368Z,99.90
2022-12-11T08:07:59.144Z,99.90
2022-12-11T08:10:26.028Z,99.90
2022-12-11T08:12:52.864Z,99.90
2022-12-11T08:15:19.598Z,99.90
2022-12-11T08:17:46.354Z,99.90
2022-12-11T08:20:13.064Z,99.90
2022-12-11T08:22:41.135Z,99.90
2022-12-11T08:25:08.672Z,99.90
2022-12-11T08:27:35.572Z,99.90
2022-12-11T08:30:02.341Z,99.90
2022-12-11T08:32:29.083Z,99.90
2022-12-11T08:34:55.784Z,99.90
2022-12-11T08:37:22.532Z,99.90
2022-12-11T08:39:50.845Z,99.90
2022-12-11T08:42:17.729Z,99.90
2022-12-11T08:44:44.500Z,99.90
2022-12-11T08:47:11.211Z,99.90
2022-12-11T08:49:38.499Z,99.90
2022-12-11T08:52:05.611Z,99.90
2022-12-11T08:54:32.588Z,99.90
2022-12-11T08:57:00.667Z,99.90
2022-12-11T08:59:27.380Z,99.90
2022-12-11T09:01:55.088Z,99.90
2022-12-11T09:04:21.909Z,99.90
2022-12-11T09:06:49.001Z,99.90
2022-12-11T09:09:15.773Z,99.90
2022-12-11T09:11:42.796Z,99.90
2022-12-11T09:14:10.903Z,99.90
2022-12-11T09:16:39.748Z,99.90
2022-12-11T09:19:08.067Z,99.90
2022-12-11T09:21:34.849Z,99.90
2022-12-11T09:24:01.767Z,99.90
2022-12-11T09:26:29.401Z,99.90
2022-12-11T09:28:56.866Z,99.90
2022-12-11T09:31:26.953Z,99.90
2022-12-11T09:33:55.856Z,99.90
2022-12-11T09:36:23.533Z,99.90
2022-12-11T09:38:51.461Z,99.90
2022-12-11T09:41:35.866Z,99.90
2022-12-11T09:44:14.750Z,99.90
2022-12-11T09:46:43.735Z,99.90
2022-12-11T09:49:28.448Z,99.90
2022-12-11T09:52:03.887Z,99.90
2022-12-11T09:54:31.497Z,99.90
2022-12-11T09:57:06.568Z,99.90
2022-12-11T09:59:40.729Z,99.90
2022-12-11T10:02:23.668Z,99.90
2022-12-11T10:04:59.138Z,99.90
2022-12-11T10:07:35.732Z,99.90
2022-12-11T10:10:12.609Z,99.90
2022-12-11T10:12:45.872Z,99.90
2022-12-11T10:15:32.895Z,99.90
2022-12-11T10:18:05.203Z,99.90
2022-12-11T10:20:34.330Z,99.90
2022-12-11T10:23:02.334Z,99.90
2022-12-11T10:25:31.944Z,99.90
2022-12-11T10:28:00.203Z,99.90
2022-12-11T10:30:34.746Z,99.90
2022-12-11T10:33:11.990Z,99.90
2022-12-11T10:35:45.232Z,99.90
2022-12-11T10:38:15.012Z,99.90
2022-12-11T10:40:47.329Z,99.90
2022-12-11T10:43:14.093Z,99.90
2022-12-11T10:45:49.544Z,99.90
2022-12-11T10:48:17.639Z,99.90
2022-12-11T10:50:55.970Z,99.90
2022-12-11T10:53:23.918Z,99.60
2022-12-11T10:55:50.833Z,99.30
2022-12-11T10:58:20.045Z,99.50
2022-12-11T11:00:59.757Z,99.40
2022-12-11T11:03:28.332Z,99.50
2022-12-11T11:06:03.084Z,99.80
2022-12-11T11:08:39.270Z,99.90
2022-12-11T11:11:06.080Z,99.70
2022-12-11T11:13:32.864Z,99.50
2022-12-11T11:16:01.016Z,99.20
2022-12-11T11:18:30.534Z,99.90
2022-12-11T11:20:57.668Z,99.90
2022-12-11T11:23:25.208Z,99.90
2022-12-11T11:25:54.569Z,99.90
2022-12-11T11:28:25.577Z,99.90
2022-12-11T11:31:02.317Z,99.80
2022-12-11T11:33:32.068Z,99.90
2022-12-11T11:36:00.541Z,99.90
2022-12-11T11:38:32.647Z,99.80
2022-12-11T11:41:11.539Z,99.90
2022-12-11T11:43:48.441Z,99.90
2022-12-11T11:46:20.280Z,99.90
2022-12-11T11:48:58.583Z,99.90
2022-12-11T11:51:30.308Z,99.90
2022-12-11T11:54:00.852Z,99.90
2022-12-11T11:56:31.625Z,99.90
2022-12-11T11:59:05.790Z,99.90
2022-12-11T12:01:33.862Z,99.90
2022-12-11T12:04:03.857Z,99.90
2022-12-11T12:06:39.302Z,99.90
2022-12-11T12:09:17.826Z,99.90
2022-12-11T12:11:52.073Z,99.90
2022-12-11T12:14:51.095Z,99.90
2022-12-11T12:17:20.591Z,99.90
2022-12-11T12:19:59.013Z,99.90
2022-12-11T12:22:39.422Z,99.90
2022-12-11T12:25:18.849Z,99.90
2022-12-11T12:27:53.925Z,99.90
2022-12-11T12:30:23.188Z,99.90
2022-12-11T12:33:03.011Z,99.90
2022-12-11T12:35:35.102Z,99.90
2022-12-11T12:38:10.410Z,99.90
2022-12-11T12:40:45.553Z,99.90
2022-12-11T12:43:29.850Z,99.90
2022-12-11T12:46:00.653Z,99.90
2022-12-11T12:48:27.965Z,99.90
2022-12-11T12:50:56.724Z,99.90
2022-12-11T12:53:26.085Z,99.90
2022-12-11T12:55:53.825Z,99.90
2022-12-11T12:58:26.899Z,99.90
2022-12-11T13:00:54.386Z,99.90
2022-12-11T13:03:22.591Z,99.90
2022-12-11T13:05:58.932Z,99.90
2022-12-11T13:08:27.659Z,99.90
2022-12-11T13:11:07.513Z,99.90
2022-12-11T13:13:38.170Z,99.90
2022-12-11T13:16:24.144Z,99.90
2022-12-11T13:18:51.404Z,99.90
2022-12-11T13:21:31.496Z,99.90
2022-12-11T13:24:15.120Z,99.90
2022-12-11T13:26:42.381Z,99.90
2022-12-11T13:29:30.717Z,99.90
2022-12-11T13:31:59.452Z,99.90
2022-12-11T13:34:29.029Z,99.90
2022-12-11T13:36:57.126Z,99.90
2022-12-11T13:39:25.436Z,99.90
2022-12-11T13:41:55.183Z,99.90
2022-12-11T13:44:26.534Z,99.90
2022-12-11T13:46:54.955Z,99.90
2022-12-11T13:49:25.370Z,99.90
2022-12-11T13:51:54.933Z,99.90
2022-12-11T13:54:23.686Z,99.90
2022-12-11T13:56:55.169Z,99.90
2022-12-11T13:59:26.185Z,99.90
2022-12-11T14:01:55.861Z,99.90
2022-12-11T14:04:23.682Z,99.90
2022-12-11T14:06:50.758Z,99.90
2022-12-11T14:09:21.442Z,99.90
2022-12-11T14:11:56.484Z,99.90
2022-12-11T14:14:33.148Z,99.90
2022-12-11T14:17:00.770Z,99.90
2022-12-11T14:19:28.138Z,99.90
2022-12-11T14:21:56.868Z,99.90
2022-12-11T14:24:23.619Z,99.90
2022-12-11T14:26:53.294Z,99.90
2022-12-11T14:29:28.541Z,99.90
2022-12-11T14:31:56.897Z,99.90
2022-12-11T14:34:26.134Z,99.90
2022-12-11T14:36:54.338Z,99.90
2022-12-11T14:39:24.153Z,99.90
2022-12-11T14:41:57.612Z,99.90
2022-12-11T14:44:27.078Z,99.90
2022-12-11T14:46:58.370Z,99.90
2022-12-11T14:49:31.683Z,99.90
2022-12-11T14:51:59.620Z,99.90
2022-12-11T14:54:32.086Z,99.90
2022-12-11T14:57:02.267Z,99.90
2022-12-11T14:59:32.228Z,99.90
2022-12-11T15:02:00.781Z,99.90
2022-12-11T15:04:29.577Z,99.90
2022-12-11T15:06:56.399Z,99.90
2022-12-11T15:09:27.513Z,99.90
2022-12-11T15:11:56.454Z,99.90
2022-12-11T15:14:25.488Z,99.90
2022-12-11T15:16:55.587Z,99.90
2022-12-11T15:19:27.316Z,99.90
2022-12-11T15:21:55.411Z,99.90
2022-12-11T15:24:26.147Z,99.90
2022-12-11T15:26:56.885Z,99.90
2022-12-11T15:29:31.577Z,99.90
2022-12-11T15:32:16.749Z,99.90
2022-12-11T15:34:45.587Z,99.90
2022-12-11T15:37:23.588Z,99.90
2022-12-11T15:39:51.137Z,99.90
2022-12-11T15:42:24.218Z,99.90
2022-12-11T15:44:53.080Z,99.90
2022-12-11T15:47:23.065Z,99.90
2022-12-11T15:49:49.814Z,99.90
2022-12-11T15:52:16.527Z,99.90
2022-12-11T15:54:43.263Z,99.90
2022-12-11T15:57:14.907Z,99.90
2022-12-11T15:59:41.655Z,99.90
2022-12-11T16:02:12.180Z,99.90
2022-12-11T16:04:39.026Z,99.90
2022-12-11T16:07:06.741Z,99.90
2022-12-11T16:09:33.534Z,99.90
2022-12-11T16:12:00.300Z,99.90
2022-12-11T16:14:26.996Z,99.90
2022-12-11T16:16:53.902Z,99.90
2022-12-11T16:19:21.978Z,99.90
2022-12-11T16:21:48.720Z,99.90
2022-12-11T16:24:15.502Z,99.90
2022-12-11T16:26:42.220Z,99.90
2022-12-11T16:29:09.172Z,99.90
2022-12-11T16:31:35.931Z,99.90
2022-12-11T16:34:02.885Z,99.90
2022-12-11T16:36:30.978Z,99.90
2022-12-11T16:38:57.720Z,99.90
2022-12-11T16:41:24.466Z,99.90
2022-12-11T16:43:51.747Z,99.90
2022-12-11T16:46:19.253Z,99.90
2022-12-11T16:48:46.118Z,99.90
2022-12-11T16:51:12.831Z,99.90
2022-12-11T16:53:40.898Z,99.90
2022-12-11T16:56:08.374Z,99.90
2022-12-11T16:58:35.446Z,99.90
2022-12-11T17:01:08.101Z,99.90
2022-12-11T17:03:34.825Z,99.90
2022-12-11T17:06:01.547Z,99.90
2022-12-11T17:08:28.328Z,99.90
2022-12-11T17:10:56.408Z,99.90
2022-12-11T17:13:23.154Z,99.90
2022-12-11T17:15:49.940Z,99.90
2022-12-11T17:18:16.652Z,99.90
2022-12-11T17:20:44.777Z,99.90
2022-12-11T17:23:12.053Z,99.90
2022-12-11T17:25:40.195Z,99.90
2022-12-11T17:28:08.525Z,99.90
2022-12-11T17:30:38.977Z,99.90
2022-12-11T17:33:05.693Z,99.90
2022-12-11T17:35:32.851Z,99.90
2022-12-11T17:37:59.568Z,99.90
2022-12-11T17:40:26.515Z,99.90
2022-12-11T17:42:53.245Z,99.90
2022-12-11T17:45:21.439Z,99.90
2022-12-11T17:47:48.233Z,99.90
2022-12-11T17:50:14.991Z,99.90
2022-12-11T17:52:44.363Z,99.90
2022-12-11T17:55:11.794Z,99.90
2022-12-11T17:57:38.826Z,99.90
2022-12-11T18:00:06.998Z,99.90
2022-12-11T18:02:35.550Z,99.90
2022-12-11T18:05:02.631Z,99.90
2022-12-11T18:07:29.734Z,99.90
2022-12-11T18:09:56.799Z,99.90
2022-12-11T18:12:24.001Z,99.90
2022-12-11T18:14:51.115Z,99.90
2022-12-11T18:17:18.183Z,99.90
2022-12-11T18:19:46.719Z,99.90
2022-12-11T18:22:13.840Z,99.90
2022-12-11T18:24:40.869Z,99.90
2022-12-11T18:27:07.970Z,99.90
2022-12-11T18:29:35.015Z,99.90
2022-12-11T18:32:02.166Z,99.90
2022-12-11T18:34:29.325Z,99.90
2022-12-11T18:36:57.801Z,99.90
2022-12-11T18:39:24.962Z,99.90
2022-12-11T18:42:24.026Z,99.90
2022-12-11T18:44:39.090Z,99.90
2022-12-11T18:47:06.541Z,99.90
2022-12-11T18:49:33.578Z,99.90
2022-12-11T18:52:02.177Z,99.90
2022-12-11T18:54:29.278Z,99.90
2022-12-11T18:56:56.329Z,99.90
2022-12-11T18:59:23.546Z,99.90
2022-12-11T19:01:50.712Z,99.90
2022-12-11T19:04:17.872Z,99.90
2022-12-11T19:06:45.242Z,99.90
2022-12-11T19:09:13.787Z,99.90
2022-12-11T19:11:42.043Z,99.90
2022-12-11T19:14:09.641Z,99.90
2022-12-11T19:16:38.325Z,99.90
2022-12-11T19:19:08.339Z,99.90
2022-12-11T19:21:35.585Z,99.90
2022-12-11T19:24:02.358Z,99.90
2022-12-11T19:26:30.474Z,99.90
2022-12-11T19:28:57.293Z,99.90
2022-12-11T19:31:24.092Z,99.90
2022-12-11T19:33:51.104Z,99.90
2022-12-11T19:36:20.309Z,99.90
2022-12-11T19:38:47.730Z,99.90
2022-12-11T19:41:16.842Z,99.90
2022-12-11T19:43:45.491Z,99.90
2022-12-11T19:46:13.855Z,99.90
2022-12-11T19:48:40.775Z,99.90
2022-12-11T19:51:10.145Z,99.90
2022-12-11T19:53:40.582Z,99.90
2022-12-11T19:56:10.432Z,99.90
2022-12-11T19:58:38.372Z,99.90
2022-12-11T20:01:07.033Z,99.90
2022-12-11T20:03:34.571Z,99.90
2022-12-11T20:06:02.216Z,99.90
2022-12-11T20:08:44.161Z,99.90
2022-12-11T20:11:17.611Z,99.90
2022-12-11T20:13:45.872Z,99.90
2022-12-11T20:16:15.832Z,99.90
2022-12-11T20:18:43.346Z,99.90
2022-12-11T20:21:13.890Z,99.90
2022-12-11T20:23:41.078Z,99.90
2022-12-11T20:26:09.026Z,99.90
2022-12-11T20:28:36.165Z,99.90
2022-12-11T20:31:06.559Z,99.90
2022-12-11T20:33:35.097Z,99.90
2022-12-11T20:36:06.050Z,99.90
2022-12-11T20:38:34.633Z,99.90
2022-12-11T20:41:01.923Z,99.90
2022-12-11T20:43:28.961Z,99.90
2022-12-11T20:45:56.016Z,99.90
2022-12-11T20:48:23.160Z,99.90
2022-12-11T20:50:51.691Z,99.90
2022-12-11T20:53:18.824Z,99.90
2022-12-11T20:55:45.836Z,99.90
2022-12-11T20:58:12.850Z,99.90
2022-12-11T21:00:40.106Z,99.90
2022-12-11T21:03:07.435Z,99.90
2022-12-11T21:05:34.189Z,99.90
2022-12-11T21:08:02.367Z,99.90
2022-12-11T21:10:29.114Z,99.90
2022-12-11T21:12:55.917Z,99.90
2022-12-11T21:15:22.642Z,99.90
2022-12-11T21:17:49.470Z,99.90
2022-12-11T21:20:16.455Z,99.90
2022-12-11T21:22:43.257Z,99.90
2022-12-11T21:25:11.798Z,99.90
2022-12-11T21:27:38.842Z,99.90
2022-12-11T21:30:06.937Z,99.90
2022-12-11T21:32:33.777Z,99.90
2022-12-11T21:35:00.885Z,99.90
2022-12-11T21:37:27.660Z,99.90
2022-12-11T21:39:55.666Z,99.90
2022-12-11T21:42:23.903Z,99.90
2022-12-11T21:47:37.401Z,99.90
2022-12-11T21:50:04.661Z,99.90
2022-12-11T21:52:31.417Z,99.90
2022-12-11T21:54:58.162Z,99.90
2022-12-11T21:57:26.953Z,99.90
2022-12-11T21:59:53.776Z,99.90
2022-12-11T22:02:20.576Z,99.90
2022-12-11T22:04:47.483Z,99.90
2022-12-11T22:07:14.360Z,99.90
2022-12-11T22:09:41.086Z,99.90
2022-12-11T22:12:08.141Z,99.90
2022-12-11T22:14:36.226Z,99.90
2022-12-11T22:17:03.029Z,99.90
2022-12-11T22:19:32.672Z,99.90
2022-12-11T22:21:59.787Z,99.90
2022-12-11T22:24:26.497Z,99.90
2022-12-11T22:26:53.223Z,99.90
2022-12-11T22:29:19.962Z,99.90
2022-12-11T22:31:48.034Z,99.90
2022-12-11T22:34:14.754Z,99.90
2022-12-11T22:36:41.512Z,99.90
2022-12-11T22:39:08.379Z,99.90
2022-12-11T22:41:35.106Z,99.90
2022-12-11T22:44:01.840Z,99.90
2022-12-11T22:46:30.248Z,99.90
2022-12-11T22:48:59.240Z,99.90
2022-12-11T22:51:26.012Z,99.90
2022-12-11T22:53:52.737Z,99.90
2022-12-11T22:56:19.657Z,99.90
2022-12-11T22:58:46.546Z,99.90
2022-12-11T23:01:15.309Z,99.90
2022-12-11T23:03:42.082Z,99.90
2022-12-11T23:06:13.538Z,99.90
2022-12-11T23:08:41.335Z,99.90
2022-12-11T23:11:11.308Z,99.90
2022-12-11T23:13:38.059Z,99.90
2022-12-11T23:16:05.356Z,99.90
2022-12-11T23:18:32.077Z,99.90
2022-12-11T23:20:59.139Z,99.90
2022-12-11T23:23:27.232Z,99.90
2022-12-11T23:25:54.023Z,99.90
2022-12-11T23:28:20.782Z,99.90
2022-12-11T23:30:47.673Z,99.90
2022-12-11T23:33:14.515Z,99.90
2022-12-11T23:39:05.130Z,99.90
2022-12-11T23:41:31.882Z,99.90
2022-12-11T23:43:58.705Z,99.90
2022-12-11T23:46:25.631Z,99.90
2022-12-11T23:48:53.372Z,99.90
2022-12-11T23:51:21.416Z,99.90
2022-12-11T23:53:48.506Z,99.90
2022-12-11T23:56:21.187Z,99.90
2022-12-11T23:58:48.384Z,99.90
